createdAt,value
2022-12-03T00:03:52.643Z,15.7
2022-12-03T00:09:14.209Z,22.7
2022-12-03T00:14:35.781Z,25
2022-12-03T00:19:57.364Z,19.7
2022-12-03T00:25:18.943Z,13.3
2022-12-03T00:30:40.520Z,15.7
2022-12-03T00:36:02.080Z,39.1
2022-12-03T00:41:23.653Z,16.7
2022-12-03T00:46:45.229Z,27.1
2022-12-03T00:52:06.806Z,22.2
2022-12-03T00:57:28.370Z,21.8
2022-12-03T01:02:49.952Z,26.6
2022-12-03T01:08:11.536Z,34
2022-12-03T01:13:32.118Z,24.4
2022-12-03T01:18:53.701Z,20.7
2022-12-03T01:24:15.255Z,15.2
2022-12-03T01:29:36.841Z,27.8
2022-12-03T01:34:58.418Z,17
2022-12-03T01:40:19.988Z,15.1
2022-12-03T01:45:40.586Z,28.5
2022-12-03T01:51:02.160Z,19.4
2022-12-03T01:56:23.736Z,23.2
2022-12-03T02:01:45.313Z,23.4
2022-12-03T02:07:06.880Z,29.1
2022-12-03T02:12:28.421Z,16.7
2022-12-03T02:17:50.001Z,31
2022-12-03T02:23:11.560Z,28.8
2022-12-03T02:28:33.149Z,17.2
2022-12-03T02:33:54.723Z,18
2022-12-03T02:39:16.291Z,27.5
2022-12-03T02:44:37.861Z,10
2022-12-03T02:49:59.441Z,22.6
2022-12-03T02:55:20.025Z,14.3
2022-12-03T03:00:41.598Z,37.8
2022-12-03T03:06:03.171Z,32
2022-12-03T03:11:24.760Z,19.6
2022-12-03T03:16:46.333Z,16.2
2022-12-03T03:22:07.903Z,11.4
2022-12-03T03:27:29.468Z,10.6
2022-12-03T03:32:51.033Z,13.1
2022-12-03T03:38:12.615Z,15.9
2022-12-03T03:43:34.197Z,18.5
2022-12-03T03:48:55.772Z,15.5
2022-12-03T03:54:17.341Z,14.4
2022-12-03T03:59:38.901Z,21.8
2022-12-03T04:04:59.499Z,10.8
2022-12-03T04:10:21.075Z,14.8
2022-12-03T04:15:42.654Z,18.6
2022-12-03T04:21:04.226Z,16.7
2022-12-03T04:26:25.784Z,23.1
2022-12-03T04:31:47.361Z,22.4
2022-12-03T04:37:08.934Z,29.5
2022-12-03T04:42:30.508Z,24.2
2022-12-03T04:47:52.090Z,14
2022-12-03T04:53:13.662Z,28.5
2022-12-03T04:58:35.242Z,24.7
2022-12-03T05:03:56.797Z,24.8
2022-12-03T05:09:18.388Z,14.5
2022-12-03T05:14:38.959Z,20.6
2022-12-03T05:20:00.541Z,23.4
2022-12-03T05:25:22.120Z,12.4
2022-12-03T05:30:43.680Z,14.1
2022-12-03T05:36:05.266Z,25.2
2022-12-03T05:41:26.831Z,19.7
2022-12-03T05:46:48.403Z,16.4
2022-12-03T05:52:09.983Z,19.7
2022-12-03T05:57:31.546Z,21.5
2022-12-03T06:02:53.133Z,17.4
2022-12-03T06:08:14.698Z,22.4
2022-12-03T06:13:36.271Z,22.6
2022-12-03T06:18:57.849Z,14.2
2022-12-03T06:24:18.384Z,20.6
2022-12-03T06:29:39.911Z,15.6
2022-12-03T06:35:01.447Z,15.2
2022-12-03T06:40:22.980Z,17.8
2022-12-03T06:45:44.504Z,19.6
2022-12-03T06:51:06.038Z,16.3
2022-12-03T06:56:27.562Z,27.1
2022-12-03T07:01:49.104Z,13.5
2022-12-03T07:07:10.643Z,15.1
2022-12-03T07:12:32.167Z,6.2
2022-12-03T07:17:53.702Z,16.7
2022-12-03T07:23:15.219Z,13
2022-12-03T07:28:36.762Z,16.2
2022-12-03T07:33:57.299Z,22.6
2022-12-03T07:44:40.361Z,20.4
2022-12-03T07:50:01.900Z,23.8
2022-12-03T07:55:23.416Z,18.7
2022-12-03T08:00:44.956Z,13.2
2022-12-03T08:06:06.479Z,18.5
2022-12-03T08:11:28.024Z,24.5
2022-12-03T08:16:49.553Z,22
2022-12-03T08:22:11.066Z,20.6
2022-12-03T08:32:54.130Z,19.9
2022-12-03T08:38:15.675Z,22.6
2022-12-03T08:43:36.221Z,20.4
2022-12-03T08:48:57.000Z,8.9
2022-12-03T08:54:19.274Z,14.8
2022-12-03T08:59:40.809Z,12.3
2022-12-03T09:05:02.330Z,20.1
2022-12-03T09:10:23.868Z,13
2022-12-03T09:15:45.382Z,15.5
2022-12-03T09:21:06.921Z,21.3
2022-12-03T09:26:28.449Z,13.4
2022-12-03T09:31:49.984Z,15.4
2022-12-03T09:37:11.503Z,18.8
2022-12-03T09:42:33.040Z,22.6
2022-12-03T09:47:54.566Z,26.2
2022-12-03T09:58:36.649Z,17
2022-12-03T10:03:58.170Z,16.5
2022-12-03T10:09:19.711Z,22.5
2022-12-03T10:14:41.224Z,32.6
2022-12-03T10:20:02.768Z,23.3
2022-12-03T10:25:24.293Z,17
2022-12-03T10:30:45.827Z,16.1
2022-12-03T10:36:07.347Z,30.2
2022-12-03T10:41:28.870Z,31.5
2022-12-03T10:46:50.403Z,20.5
2022-12-03T10:52:11.930Z,26.6
2022-12-03T10:57:33.459Z,23.9
2022-12-03T11:02:54.019Z,37.5
2022-12-03T11:08:15.544Z,20.8
2022-12-03T11:13:37.073Z,21.6
2022-12-03T11:18:58.612Z,31.9
2022-12-03T11:24:20.133Z,34.3
2022-12-03T11:29:41.663Z,18.3
2022-12-03T11:35:03.193Z,22.3
2022-12-03T11:40:24.735Z,26.2
2022-12-03T11:45:46.260Z,16.7
2022-12-03T11:51:07.791Z,30.1
2022-12-03T11:56:29.314Z,25.8
2022-12-03T12:01:50.834Z,28.7
2022-12-03T12:07:12.380Z,22.6
2022-12-03T12:12:32.913Z,14.9
2022-12-03T12:17:54.454Z,15.7
2022-12-03T12:23:15.974Z,24.5
2022-12-03T12:28:37.509Z,30.5
2022-12-03T12:33:59.040Z,37.9
2022-12-03T12:39:20.562Z,36.8
2022-12-03T12:44:42.105Z,27.9
2022-12-03T12:50:03.627Z,25.8
2022-12-03T12:55:25.156Z,35.6
2022-12-03T13:00:46.690Z,22.4
2022-12-03T13:06:08.215Z,19.1
2022-12-03T13:11:29.748Z,23.2
2022-12-03T13:16:51.280Z,23.7
2022-12-03T13:22:11.820Z,24
2022-12-03T13:27:33.338Z,19.4
2022-12-03T13:32:54.878Z,31.4
2022-12-03T13:38:16.412Z,30
2022-12-03T13:43:37.934Z,25.9
2022-12-03T13:48:59.475Z,23.3
2022-12-03T13:54:21.000Z,27.1
2022-12-03T13:59:42.521Z,28.3
2022-12-03T14:05:04.053Z,23.1
2022-12-03T14:10:25.574Z,23.1
2022-12-03T14:15:47.110Z,32.9
2022-12-03T14:21:08.634Z,21.7
2022-12-03T14:26:30.174Z,36.5
2022-12-03T14:31:50.708Z,30.9
2022-12-03T14:37:12.235Z,39.5
2022-12-03T14:42:33.770Z,41.2
2022-12-03T14:47:55.298Z,45.8
2022-12-03T14:53:16.841Z,35.6
2022-12-03T14:58:38.365Z,40
2022-12-03T15:03:59.882Z,28.5
2022-12-03T15:09:21.415Z,34.8
2022-12-03T15:14:42.954Z,28.8
2022-12-03T15:20:04.476Z,22.5
2022-12-03T15:25:26.067Z,46.2
2022-12-03T15:30:47.621Z,30.2
2022-12-03T15:36:09.218Z,48.2
2022-12-03T15:41:29.793Z,36.3
2022-12-03T15:46:51.362Z,42.9
2022-12-03T15:52:12.938Z,37.3
2022-12-03T15:57:34.528Z,38.4
2022-12-03T16:02:56.096Z,27.3
2022-12-03T16:08:17.678Z,36.3
2022-12-03T16:13:39.235Z,27.4
2022-12-03T16:19:00.824Z,41.1
2022-12-03T16:24:22.406Z,45.7
2022-12-03T16:29:43.970Z,55.6
2022-12-03T16:35:05.548Z,27.9
2022-12-03T16:40:27.122Z,39.2
2022-12-03T16:45:48.679Z,21.8
2022-12-03T16:51:09.272Z,23.6
2022-12-03T16:56:30.846Z,35.2
2022-12-03T17:01:52.428Z,17.2
2022-12-03T17:07:14.011Z,53.4
2022-12-03T17:12:35.584Z,34.3
2022-12-03T17:17:57.140Z,23.4
2022-12-03T17:23:18.720Z,22.1
2022-12-03T17:28:40.304Z,20.8
2022-12-03T17:34:01.871Z,45
2022-12-03T17:39:23.440Z,19.7
2022-12-03T17:44:45.021Z,44.6
2022-12-03T17:50:06.583Z,54.6
2022-12-03T17:55:28.171Z,46.5
2022-12-03T18:00:48.760Z,24.5
2022-12-03T18:06:10.327Z,33
2022-12-03T18:11:31.905Z,33.4
2022-12-03T18:16:53.485Z,42.7
2022-12-03T18:22:15.041Z,46
2022-12-03T18:27:36.632Z,41.2
2022-12-03T18:32:58.205Z,28.3
2022-12-03T18:38:19.759Z,30.8
2022-12-03T18:43:41.340Z,28.4
2022-12-03T18:49:02.927Z,38
2022-12-03T18:54:24.495Z,39.1
2022-12-03T18:59:46.069Z,39.1
2022-12-03T19:05:07.645Z,30.2
2022-12-03T19:10:28.242Z,50.1
2022-12-03T19:15:49.804Z,33.2
2022-12-03T19:21:11.388Z,38.7
2022-12-03T19:26:32.941Z,21.3
2022-12-03T19:31:54.522Z,22.6
2022-12-03T19:37:16.107Z,43.1
2022-12-03T19:42:36.681Z,54.2
2022-12-03T19:47:58.271Z,41.4
2022-12-03T19:53:19.845Z,36.8
2022-12-03T19:58:41.413Z,40.3
2022-12-03T20:04:02.981Z,37.1
2022-12-03T20:09:24.552Z,39.5
2022-12-03T20:14:46.126Z,45.2
2022-12-03T20:20:07.690Z,55.6
2022-12-03T20:25:29.272Z,44
2022-12-03T20:30:50.849Z,52
2022-12-03T20:36:12.411Z,45.5
2022-12-03T20:46:55.567Z,43.4
2022-12-03T20:52:16.156Z,32.8
2022-12-03T20:57:37.717Z,32.5
2022-12-03T21:02:59.288Z,37.4
2022-12-03T21:08:20.861Z,51
2022-12-03T21:13:42.437Z,42.5
2022-12-03T21:19:04.004Z,25.8
2022-12-03T21:24:25.592Z,38.4
2022-12-03T21:29:47.149Z,35.4
2022-12-03T21:35:08.736Z,33.9
2022-12-03T21:40:30.299Z,30.1
2022-12-03T21:45:51.875Z,32
2022-12-03T21:51:13.434Z,35.9
2022-12-03T21:56:35.010Z,51.3
2022-12-03T22:01:55.604Z,28.7
2022-12-03T22:07:17.186Z,42.4
2022-12-03T22:18:00.324Z,40.6
2022-12-03T22:23:21.893Z,37.6
2022-12-03T22:28:43.464Z,38.5
2022-12-03T22:34:05.032Z,32.1
2022-12-03T22:39:26.620Z,29.2
2022-12-03T22:44:48.190Z,30.2
2022-12-03T22:50:09.748Z,65.9
2022-12-03T22:55:31.318Z,44.2
2022-12-03T23:00:52.893Z,39.6
2022-12-03T23:06:14.470Z,40.7
2022-12-03T23:11:36.171Z,46.8
2022-12-03T23:16:57.730Z,45.2
2022-12-03T23:22:19.309Z,43.4
2022-12-03T23:27:40.882Z,39.4
2022-12-03T23:33:02.450Z,30.8
2022-12-03T23:38:24.035Z,36.2
2022-12-03T23:43:45.599Z,42.5
2022-12-03T23:49:07.165Z,36.7
2022-12-03T23:54:28.756Z,34.9
2022-12-03T23:59:50.325Z,51.1
